createdAt,value
2023-01-29T00:02:20.731Z,52.68
2023-01-29T00:04:51.330Z,52.56
2023-01-29T00:07:22.557Z,52.66
2023-01-29T00:09:53.255Z,52.16
2023-01-29T00:12:24.505Z,52.33
2023-01-29T00:14:55.813Z,52.20
2023-01-29T00:17:26.456Z,52.22
2023-01-29T00:19:56.661Z,52.12
2023-01-29T00:22:27.222Z,52.08
2023-01-29T00:24:58.064Z,51.70
2023-01-29T00:27:28.881Z,51.65
2023-01-29T00:30:13.959Z,51.36
2023-01-29T00:32:44.444Z,51.21
2023-01-29T00:35:14.502Z,50.79
2023-01-29T00:37:45.543Z,51.07
2023-01-29T00:40:16.375Z,50.59
2023-01-29T00:43:05.394Z,50.58
2023-01-29T00:45:37.818Z,50.55
2023-01-29T00:48:08.954Z,50.06
2023-01-29T00:50:41.798Z,50.04
2023-01-29T00:53:12.360Z,50.46
2023-01-29T00:55:43.521Z,50.53
2023-01-29T00:58:14.089Z,50.02
2023-01-29T01:00:44.412Z,50.05
2023-01-29T01:03:15.497Z,49.77
2023-01-29T01:05:45.589Z,49.63
2023-01-29T01:08:34.228Z,49.31
2023-01-29T01:11:15.097Z,49.59
2023-01-29T01:13:46.002Z,49.19
2023-01-29T01:16:18.385Z,49.44
2023-01-29T01:18:48.940Z,49.32
2023-01-29T01:21:19.842Z,48.88
2023-01-29T01:23:52.892Z,49.03
2023-01-29T01:26:23.557Z,48.90
2023-01-29T01:28:54.444Z,49.25
2023-01-29T01:31:24.888Z,48.79
2023-01-29T01:33:56.677Z,49.13
2023-01-29T01:36:32.379Z,48.54
2023-01-29T01:39:02.774Z,49.09
2023-01-29T01:41:33.377Z,48.83
2023-01-29T01:44:05.301Z,48.76
2023-01-29T01:46:38.138Z,49.27
2023-01-29T01:49:19.930Z,49.31
2023-01-29T01:51:52.530Z,48.83
2023-01-29T01:54:29.675Z,48.76
2023-01-29T01:57:10.299Z,48.73
2023-01-29T01:59:42.124Z,49.03
2023-01-29T02:02:32.139Z,49.05
2023-01-29T02:05:20.430Z,48.95
2023-01-29T02:08:10.849Z,48.73
2023-01-29T02:10:47.456Z,48.66
2023-01-29T02:13:19.627Z,48.89
2023-01-29T02:15:50.281Z,49.20
2023-01-29T02:18:23.451Z,49.62
2023-01-29T02:21:49.858Z,49.28
2023-01-29T02:24:23.870Z,49.11
2023-01-29T02:27:31.193Z,49.44
2023-01-29T02:30:13.575Z,48.97
2023-01-29T02:33:08.445Z,48.94
2023-01-29T02:35:51.917Z,49.42
2023-01-29T02:38:43.254Z,49.20
2023-01-29T02:41:32.030Z,49.19
2023-01-29T02:44:07.053Z,49.37
2023-01-29T02:46:59.645Z,49.03
2023-01-29T02:49:50.082Z,48.89
2023-01-29T02:52:25.967Z,48.22
2023-01-29T02:55:11.834Z,48.09
2023-01-29T02:57:45.846Z,48.48
2023-01-29T03:00:29.280Z,47.94
2023-01-29T03:03:21.980Z,47.74
2023-01-29T03:06:00.854Z,47.63
2023-01-29T03:08:46.616Z,47.87
2023-01-29T03:11:17.977Z,47.73
2023-01-29T03:14:04.442Z,47.49
2023-01-29T03:16:40.543Z,47.38
2023-01-29T03:19:17.191Z,47.37
2023-01-29T03:22:11.747Z,46.97
2023-01-29T03:25:01.590Z,46.64
2023-01-29T03:31:24.089Z,47.31
2023-01-29T03:34:05.346Z,47.20
2023-01-29T03:36:46.234Z,47.44
2023-01-29T03:39:17.386Z,47.46
2023-01-29T03:42:04.600Z,47.62
2023-01-29T03:44:53.723Z,47.10
2023-01-29T03:47:47.896Z,46.72
2023-01-29T03:50:31.719Z,46.75
2023-01-29T03:53:12.151Z,46.98
2023-01-29T03:56:08.683Z,47.17
2023-01-29T03:59:02.747Z,46.78
2023-01-29T04:01:59.593Z,46.72
2023-01-29T04:04:37.836Z,47.26
2023-01-29T04:07:26.897Z,46.29
2023-01-29T04:10:21.223Z,46.60
2023-01-29T04:13:03.789Z,47.13
2023-01-29T04:15:38.859Z,46.98
2023-01-29T04:18:10.197Z,46.75
2023-01-29T04:21:01.829Z,46.43
2023-01-29T04:23:32.390Z,46.31
2023-01-29T04:26:28.300Z,46.03
2023-01-29T04:29:23.191Z,45.68
2023-01-29T04:32:12.490Z,46.37
2023-01-29T04:34:59.656Z,46.39
2023-01-29T04:37:46.341Z,45.41
2023-01-29T04:40:22.684Z,45.80
2023-01-29T04:42:59.696Z,45.42
2023-01-29T04:45:59.587Z,45.69
2023-01-29T04:48:46.356Z,45.46
2023-01-29T04:51:40.711Z,45.11
2023-01-29T04:54:22.516Z,45.00
2023-01-29T04:56:55.677Z,44.81
2023-01-29T04:59:42.568Z,45.23
2023-01-29T05:02:13.899Z,44.45
2023-01-29T05:04:46.033Z,45.06
2023-01-29T05:07:17.332Z,44.63
2023-01-29T05:09:49.039Z,43.75
2023-01-29T05:12:39.473Z,43.88
2023-01-29T05:15:14.440Z,43.70
2023-01-29T05:17:44.980Z,43.16
2023-01-29T05:20:16.668Z,43.64
2023-01-29T05:22:49.185Z,44.03
2023-01-29T05:25:29.031Z,44.40
2023-01-29T05:28:12.788Z,44.47
2023-01-29T05:30:45.418Z,45.08
2023-01-29T05:33:20.731Z,45.24
2023-01-29T05:35:51.877Z,45.11
2023-01-29T05:38:23.288Z,45.28
2023-01-29T05:40:55.265Z,44.65
2023-01-29T05:43:27.134Z,44.45
2023-01-29T05:46:02.423Z,44.01
2023-01-29T05:48:33.546Z,44.27
2023-01-29T05:51:05.393Z,44.34
2023-01-29T05:53:36.306Z,44.22
2023-01-29T05:56:07.653Z,44.15
2023-01-29T05:58:38.566Z,44.14
2023-01-29T06:01:16.491Z,44.17
2023-01-29T06:03:47.675Z,44.33
2023-01-29T06:06:18.720Z,43.61
2023-01-29T06:08:49.531Z,43.92
2023-01-29T06:11:19.927Z,43.85
2023-01-29T06:13:58.541Z,44.59
2023-01-29T06:16:28.859Z,44.11
2023-01-29T06:19:00.374Z,44.17
2023-01-29T06:21:30.884Z,44.38
2023-01-29T06:24:01.853Z,44.47
2023-01-29T06:26:33.261Z,44.07
2023-01-29T06:29:03.693Z,44.08
2023-01-29T06:31:38.772Z,44.45
2023-01-29T06:34:10.349Z,44.20
2023-01-29T06:36:42.729Z,44.28
2023-01-29T06:39:13.648Z,44.50
2023-01-29T06:41:44.062Z,44.70
2023-01-29T06:44:14.883Z,44.81
2023-01-29T06:46:46.352Z,45.10
2023-01-29T06:49:16.779Z,45.27
2023-01-29T06:51:47.936Z,45.49
2023-01-29T06:54:18.785Z,45.13
2023-01-29T06:56:49.703Z,44.88
2023-01-29T06:59:20.579Z,45.36
2023-01-29T07:01:50.980Z,45.89
2023-01-29T07:04:21.647Z,45.27
2023-01-29T07:06:52.564Z,45.23
2023-01-29T07:09:22.966Z,45.16
2023-01-29T07:11:53.717Z,45.04
2023-01-29T07:14:24.483Z,44.95
2023-01-29T07:16:54.882Z,45.40
2023-01-29T07:19:25.452Z,45.71
2023-01-29T07:21:59.115Z,45.98
2023-01-29T07:24:29.901Z,46.63
2023-01-29T07:27:00.546Z,46.65
2023-01-29T07:29:31.339Z,46.89
2023-01-29T07:32:02.292Z,46.54
2023-01-29T07:34:32.901Z,46.79
2023-01-29T07:37:03.133Z,47.04
2023-01-29T07:39:34.439Z,47.04
2023-01-29T07:42:04.695Z,47.56
2023-01-29T07:44:35.328Z,47.64
2023-01-29T07:47:05.874Z,47.76
2023-01-29T07:49:36.226Z,47.89
2023-01-29T07:52:06.691Z,47.59
2023-01-29T07:54:37.333Z,48.24
2023-01-29T07:57:07.890Z,48.10
2023-01-29T07:59:38.681Z,47.34
2023-01-29T08:02:11.313Z,46.44
2023-01-29T08:04:42.176Z,45.50
2023-01-29T08:07:13.871Z,45.81
2023-01-29T08:09:44.460Z,45.09
2023-01-29T08:12:15.813Z,44.81
2023-01-29T08:14:46.774Z,45.02
2023-01-29T08:17:17.685Z,45.00
2023-01-29T08:19:48.204Z,44.66
2023-01-29T08:22:19.030Z,45.08
2023-01-29T08:25:06.326Z,45.04
2023-01-29T08:27:38.323Z,45.33
2023-01-29T08:30:10.524Z,44.82
2023-01-29T08:32:41.319Z,44.95
2023-01-29T08:35:12.313Z,45.21
2023-01-29T08:37:42.987Z,45.17
2023-01-29T08:40:14.333Z,45.17
2023-01-29T08:42:46.697Z,44.96
2023-01-29T08:45:17.225Z,45.03
2023-01-29T08:47:51.256Z,45.06
2023-01-29T08:50:21.849Z,45.27
2023-01-29T08:52:51.990Z,45.54
2023-01-29T08:55:22.759Z,45.21
2023-01-29T08:57:53.394Z,45.16
2023-01-29T09:00:24.392Z,45.05
2023-01-29T09:02:55.156Z,45.18
2023-01-29T09:05:26.065Z,45.34
2023-01-29T09:08:00.888Z,45.05
2023-01-29T09:10:31.871Z,45.02
2023-01-29T09:13:04.425Z,44.47
2023-01-29T09:15:35.196Z,44.80
2023-01-29T09:18:06.749Z,44.95
2023-01-29T09:20:39.240Z,44.96
2023-01-29T09:23:12.522Z,44.65
2023-01-29T09:25:45.138Z,45.04
2023-01-29T09:28:22.552Z,45.94
2023-01-29T09:30:53.647Z,45.13
2023-01-29T09:33:25.655Z,45.34
2023-01-29T09:35:56.125Z,44.48
2023-01-29T09:38:27.092Z,44.85
2023-01-29T09:41:20.293Z,45.03
2023-01-29T09:43:55.844Z,45.15
2023-01-29T09:46:43.726Z,45.63
2023-01-29T09:49:26.471Z,45.15
2023-01-29T09:52:02.883Z,44.94
2023-01-29T09:55:00.819Z,45.38
2023-01-29T09:57:53.170Z,45.30
2023-01-29T10:00:31.777Z,45.00
2023-01-29T10:03:10.785Z,45.59
2023-01-29T10:06:22.721Z,45.73
2023-01-29T10:09:03.708Z,45.51
2023-01-29T10:11:40.067Z,45.76
2023-01-29T10:14:30.376Z,45.80
2023-01-29T10:17:03.286Z,45.34
2023-01-29T10:20:00.425Z,45.36
2023-01-29T10:22:53.274Z,46.14
2023-01-29T10:25:24.682Z,45.68
2023-01-29T10:27:58.275Z,45.92
2023-01-29T10:30:59.830Z,45.49
2023-01-29T10:34:01.398Z,45.83
2023-01-29T10:36:59.226Z,46.11
2023-01-29T10:39:32.903Z,45.57
2023-01-29T10:42:39.357Z,45.35
2023-01-29T10:45:25.979Z,45.99
2023-01-29T10:48:31.410Z,44.97
2023-01-29T10:51:04.493Z,45.61
2023-01-29T10:53:48.240Z,45.42
2023-01-29T10:56:25.942Z,45.28
2023-01-29T10:59:31.866Z,45.05
2023-01-29T11:02:04.332Z,45.18
2023-01-29T11:04:39.594Z,45.11
2023-01-29T11:07:10.650Z,45.03
2023-01-29T11:09:51.303Z,45.81
2023-01-29T11:12:27.541Z,44.98
2023-01-29T11:15:24.235Z,45.28
2023-01-29T11:18:05.632Z,45.25
2023-01-29T11:20:37.248Z,45.42
2023-01-29T11:23:20.737Z,44.98
2023-01-29T11:25:56.259Z,46.01
2023-01-29T11:28:53.241Z,46.05
2023-01-29T11:31:42.749Z,45.24
2023-01-29T11:34:34.072Z,45.79
2023-01-29T11:37:06.633Z,46.30
2023-01-29T11:39:45.582Z,46.31
2023-01-29T11:42:24.471Z,45.81
2023-01-29T11:44:55.571Z,45.63
2023-01-29T11:47:31.014Z,45.81
2023-01-29T11:50:03.543Z,45.95
2023-01-29T11:52:43.086Z,46.11
2023-01-29T11:55:27.516Z,46.00
2023-01-29T11:58:13.135Z,45.90
2023-01-29T12:00:48.388Z,45.90
2023-01-29T12:03:26.489Z,46.14
2023-01-29T12:06:01.356Z,46.30
2023-01-29T12:08:42.995Z,46.12
2023-01-29T12:11:33.381Z,46.27
2023-01-29T12:14:23.582Z,46.21
2023-01-29T12:16:58.610Z,46.02
2023-01-29T12:20:04.310Z,45.96
2023-01-29T12:23:11.564Z,45.94
2023-01-29T12:26:05.716Z,47.01
2023-01-29T12:28:56.460Z,47.00
2023-01-29T12:31:49.689Z,46.71
2023-01-29T12:34:40.119Z,46.77
2023-01-29T12:37:29.518Z,46.92
2023-01-29T12:40:00.771Z,46.68
2023-01-29T12:42:32.998Z,46.67
2023-01-29T12:45:08.066Z,47.22
2023-01-29T12:47:55.275Z,47.25
2023-01-29T12:50:35.156Z,46.88
2023-01-29T12:53:09.388Z,47.22
2023-01-29T12:55:56.284Z,47.24
2023-01-29T12:58:42.297Z,47.24
2023-01-29T13:01:24.842Z,47.50
2023-01-29T13:04:08.097Z,47.43
2023-01-29T13:06:45.357Z,47.24
2023-01-29T13:09:21.033Z,47.91
2023-01-29T13:12:10.486Z,47.83
2023-01-29T13:14:57.984Z,47.85
2023-01-29T13:17:56.089Z,48.08
2023-01-29T13:20:34.512Z,48.09
2023-01-29T13:23:23.455Z,48.17
2023-01-29T13:25:57.989Z,47.92
2023-01-29T13:28:29.179Z,47.86
2023-01-29T13:31:37.844Z,48.38
2023-01-29T13:34:16.718Z,48.32
2023-01-29T13:36:52.585Z,49.08
2023-01-29T13:39:30.674Z,48.76
2023-01-29T13:42:02.804Z,48.67
2023-01-29T13:44:41.224Z,48.63
2023-01-29T13:47:13.356Z,48.52
2023-01-29T13:49:55.342Z,48.93
2023-01-29T13:52:30.944Z,48.96
2023-01-29T13:55:06.770Z,48.85
2023-01-29T13:57:50.299Z,49.56
2023-01-29T14:00:23.416Z,49.49
2023-01-29T14:02:57.238Z,49.22
2023-01-29T14:05:34.967Z,49.55
2023-01-29T14:08:40.859Z,49.56
2023-01-29T14:11:17.792Z,49.34
2023-01-29T14:13:49.929Z,49.72
2023-01-29T14:16:20.854Z,49.52
2023-01-29T14:18:59.814Z,49.53
2023-01-29T14:21:36.194Z,49.58
2023-01-29T14:24:21.775Z,49.77
2023-01-29T14:26:56.850Z,50.40
2023-01-29T14:29:34.952Z,50.08
2023-01-29T14:32:14.530Z,50.33
2023-01-29T14:34:51.938Z,50.09
2023-01-29T14:37:35.479Z,50.27
2023-01-29T14:40:21.695Z,50.22
2023-01-29T14:43:08.172Z,49.84
2023-01-29T14:45:45.775Z,49.95
2023-01-29T14:48:39.532Z,49.80
2023-01-29T14:51:15.831Z,49.66
2023-01-29T14:54:07.871Z,49.92
2023-01-29T14:56:43.926Z,50.08
2023-01-29T14:59:38.396Z,49.66
2023-01-29T15:02:45.348Z,50.05
2023-01-29T15:05:20.638Z,50.02
2023-01-29T15:08:17.490Z,49.58
2023-01-29T15:11:12.368Z,49.51
2023-01-29T15:13:54.624Z,50.08
2023-01-29T15:16:28.587Z,50.03
2023-01-29T15:19:10.102Z,49.66
2023-01-29T15:21:40.686Z,49.92
2023-01-29T15:24:15.273Z,49.74
2023-01-29T15:26:45.949Z,50.10
2023-01-29T15:29:25.562Z,50.31
2023-01-29T15:32:00.330Z,50.27
2023-01-29T15:34:31.292Z,50.37
2023-01-29T15:37:01.705Z,49.73
2023-01-29T15:39:32.764Z,49.96
2023-01-29T15:42:17.533Z,49.91
2023-01-29T15:44:48.456Z,50.19
2023-01-29T15:47:19.024Z,50.08
2023-01-29T15:49:50.010Z,49.90
2023-01-29T15:52:27.622Z,50.62
2023-01-29T15:54:59.464Z,50.58
2023-01-29T15:57:38.572Z,50.51
2023-01-29T16:00:26.248Z,50.76
2023-01-29T16:02:58.303Z,50.74
2023-01-29T16:05:39.267Z,50.87
2023-01-29T16:08:14.215Z,51.00
2023-01-29T16:10:46.052Z,50.74
2023-01-29T16:13:30.427Z,50.72
2023-01-29T16:16:16.497Z,50.71
2023-01-29T16:18:59.470Z,50.95
2023-01-29T16:21:40.202Z,50.95
2023-01-29T16:24:17.050Z,50.64
2023-01-29T16:26:49.922Z,51.07
2023-01-29T16:29:23.988Z,51.52
2023-01-29T16:32:01.566Z,51.33
2023-01-29T16:34:40.067Z,51.20
2023-01-29T16:37:24.470Z,51.48
2023-01-29T16:39:55.385Z,51.40
2023-01-29T16:42:33.473Z,51.95
2023-01-29T16:45:05.130Z,51.54
2023-01-29T16:47:44.583Z,51.76
2023-01-29T16:50:46.207Z,51.99
2023-01-29T16:53:28.262Z,52.01
2023-01-29T16:56:04.338Z,52.17
2023-01-29T16:58:35.072Z,51.93
2023-01-29T17:01:09.703Z,52.12
2023-01-29T17:03:41.102Z,52.27
2023-01-29T17:06:13.542Z,52.42
2023-01-29T17:08:46.588Z,52.43
2023-01-29T17:11:29.741Z,52.65
2023-01-29T17:14:00.439Z,52.20
2023-01-29T17:16:33.938Z,52.92
2023-01-29T17:19:15.308Z,52.52
2023-01-29T17:21:46.795Z,52.87
2023-01-29T17:24:17.563Z,52.88
2023-01-29T17:26:48.379Z,52.88
2023-01-29T17:29:31.112Z,52.95
2023-01-29T17:32:01.406Z,52.97
2023-01-29T17:34:32.125Z,52.99
2023-01-29T17:37:03.397Z,53.30
2023-01-29T17:39:33.778Z,53.46
2023-01-29T17:42:04.406Z,53.49
2023-01-29T17:44:35.434Z,53.38
2023-01-29T17:47:06.443Z,53.63
2023-01-29T17:49:38.296Z,53.38
2023-01-29T17:52:08.810Z,53.83
2023-01-29T17:54:39.212Z,53.70
2023-01-29T17:57:10.921Z,53.70
2023-01-29T17:59:41.560Z,53.81
2023-01-29T18:02:29.802Z,53.82
2023-01-29T18:05:00.515Z,53.91
2023-01-29T18:07:31.356Z,53.96
2023-01-29T18:10:01.660Z,54.13
2023-01-29T18:12:32.001Z,54.05
2023-01-29T18:15:02.383Z,53.92
2023-01-29T18:17:33.213Z,54.08
2023-01-29T18:20:03.954Z,54.06
2023-01-29T18:22:34.532Z,54.37
2023-01-29T18:25:05.078Z,54.36
2023-01-29T18:27:35.616Z,54.44
2023-01-29T18:30:06.928Z,54.42
2023-01-29T18:32:37.792Z,54.70
2023-01-29T18:35:09.066Z,54.56
2023-01-29T18:37:39.389Z,54.70
2023-01-29T18:40:18.266Z,54.80
2023-01-29T18:42:49.427Z,54.91
2023-01-29T18:45:20.215Z,54.85
2023-01-29T18:47:50.942Z,54.68
2023-01-29T18:50:24.275Z,55.22
2023-01-29T18:52:55.336Z,55.08
2023-01-29T18:55:27.534Z,55.21
2023-01-29T18:58:25.089Z,55.05
2023-01-29T19:00:49.357Z,54.84
2023-01-29T19:03:19.629Z,55.25
2023-01-29T19:05:49.817Z,55.15
2023-01-29T19:08:20.090Z,55.12
2023-01-29T19:10:50.354Z,55.29
2023-01-29T19:13:20.768Z,55.42
2023-01-29T19:15:51.240Z,55.14
2023-01-29T19:18:22.134Z,55.45
2023-01-29T19:20:54.313Z,55.37
2023-01-29T19:23:24.972Z,55.60
2023-01-29T19:25:58.938Z,55.85
2023-01-29T19:28:29.599Z,55.57
2023-01-29T19:31:03.807Z,55.75
2023-01-29T19:33:34.159Z,55.59
2023-01-29T19:36:04.873Z,55.88
2023-01-29T19:38:39.418Z,55.64
2023-01-29T19:41:09.640Z,55.81
2023-01-29T19:43:42.814Z,55.88
2023-01-29T19:46:13.648Z,55.75
2023-01-29T19:48:44.996Z,55.98
2023-01-29T19:51:15.793Z,55.99
2023-01-29T19:53:46.370Z,55.96
2023-01-29T19:56:19.448Z,55.94
2023-01-29T19:58:49.746Z,56.03
2023-01-29T20:01:31.474Z,55.87
2023-01-29T20:04:01.822Z,56.25
2023-01-29T20:06:32.191Z,56.11
2023-01-29T20:09:03.901Z,56.31
2023-01-29T20:11:34.243Z,56.10
2023-01-29T20:14:08.321Z,56.17
2023-01-29T20:16:41.743Z,56.20
2023-01-29T20:19:15.467Z,56.33
2023-01-29T20:21:52.565Z,56.54
2023-01-29T20:24:24.329Z,56.52
2023-01-29T20:26:54.760Z,56.66
2023-01-29T20:29:25.070Z,56.89
2023-01-29T20:31:55.841Z,56.81
2023-01-29T20:34:26.505Z,56.83
2023-01-29T20:36:57.441Z,56.97
2023-01-29T20:39:27.676Z,56.86
2023-01-29T20:41:58.318Z,56.91
2023-01-29T20:44:28.980Z,56.98
2023-01-29T20:47:02.023Z,56.72
2023-01-29T20:49:32.398Z,56.96
2023-01-29T20:52:02.715Z,57.13
2023-01-29T20:54:34.149Z,57.10
2023-01-29T20:57:12.740Z,57.21
2023-01-29T20:59:45.943Z,57.09
2023-01-29T21:02:16.245Z,57.13
2023-01-29T21:04:46.509Z,57.14
2023-01-29T21:07:17.402Z,57.59
2023-01-29T21:09:48.119Z,57.48
2023-01-29T21:12:18.853Z,57.43
2023-01-29T21:14:51.245Z,57.26
2023-01-29T21:17:22.339Z,57.22
2023-01-29T21:19:52.984Z,57.27
2023-01-29T21:22:24.937Z,57.40
2023-01-29T21:24:58.726Z,57.52
2023-01-29T21:27:29.285Z,57.53
2023-01-29T21:30:02.223Z,57.73
2023-01-29T21:32:32.784Z,57.72
2023-01-29T21:35:03.004Z,57.89
2023-01-29T21:37:37.796Z,57.98
2023-01-29T21:40:09.246Z,58.01
2023-01-29T21:42:58.087Z,57.90
2023-01-29T21:45:29.454Z,57.54
2023-01-29T21:48:00.057Z,57.76
2023-01-29T21:50:30.473Z,57.79
2023-01-29T21:53:01.006Z,57.89
2023-01-29T21:55:31.376Z,57.67
2023-01-29T21:58:09.937Z,57.94
2023-01-29T22:00:40.979Z,57.85
2023-01-29T22:03:12.211Z,57.91
2023-01-29T22:05:42.670Z,57.81
2023-01-29T22:08:13.232Z,57.84
2023-01-29T22:10:46.811Z,57.74
2023-01-29T22:13:17.309Z,57.82
2023-01-29T22:15:47.952Z,57.49
2023-01-29T22:18:18.840Z,57.75
2023-01-29T22:20:54.748Z,57.36
2023-01-29T22:23:26.383Z,57.66
2023-01-29T22:26:02.814Z,57.58
2023-01-29T22:28:33.129Z,57.40
2023-01-29T22:31:05.770Z,57.46
2023-01-29T22:33:36.628Z,57.49
2023-01-29T22:36:07.573Z,57.49
2023-01-29T22:38:37.877Z,57.53
2023-01-29T22:41:08.387Z,57.52
2023-01-29T22:43:38.627Z,57.57
2023-01-29T22:46:10.251Z,57.47
2023-01-29T22:48:41.039Z,57.25
2023-01-29T22:51:11.926Z,57.31
2023-01-29T22:53:54.065Z,57.38
2023-01-29T22:56:30.526Z,57.29
2023-01-29T22:59:01.876Z,57.37
2023-01-29T23:01:33.829Z,57.24
2023-01-29T23:04:04.207Z,56.90
2023-01-29T23:06:35.025Z,56.61
2023-01-29T23:09:05.549Z,56.45
2023-01-29T23:11:35.894Z,56.13
2023-01-29T23:14:06.296Z,56.01
2023-01-29T23:16:37.150Z,56.31
2023-01-29T23:19:08.489Z,56.21
2023-01-29T23:21:39.014Z,56.11
2023-01-29T23:24:10.651Z,56.02
2023-01-29T23:27:01.825Z,56.12
2023-01-29T23:29:32.524Z,55.68
2023-01-29T23:32:02.889Z,55.52
2023-01-29T23:34:33.161Z,55.75
2023-01-29T23:37:03.549Z,55.62
2023-01-29T23:39:33.834Z,55.38
2023-01-29T23:42:04.308Z,55.38
2023-01-29T23:44:34.676Z,55.14
2023-01-29T23:47:05.366Z,55.15
2023-01-29T23:49:36.093Z,55.01
2023-01-29T23:52:06.552Z,55.13
2023-01-29T23:54:37.675Z,54.76
2023-01-29T23:57:07.905Z,55.33
2023-01-29T23:59:46.198Z,55.17
